createdAt,value
2023-03-30T00:01:29.411Z,1.33
2023-03-30T00:03:31.584Z,1.75
2023-03-30T00:05:35.925Z,1.70
2023-03-30T00:07:40.757Z,4.03
2023-03-30T00:09:43.818Z,2.15
2023-03-30T00:11:48.128Z,1.70
2023-03-30T00:13:51.067Z,1.52
2023-03-30T00:15:53.267Z,2.00
2023-03-30T00:17:59.398Z,1.60
2023-03-30T00:20:02.795Z,2.10
2023-03-30T00:22:07.014Z,1.52
2023-03-30T00:24:11.495Z,2.67
2023-03-30T00:26:16.458Z,1.75
2023-03-30T00:28:18.411Z,2.40
2023-03-30T00:30:20.498Z,1.95
2023-03-30T00:32:22.752Z,1.67
2023-03-30T00:34:24.736Z,2.85
2023-03-30T00:36:26.894Z,2.08
2023-03-30T00:38:29.922Z,2.28
2023-03-30T00:40:34.267Z,2.00
2023-03-30T00:42:37.749Z,2.13
2023-03-30T00:44:58.907Z,3.03
2023-03-30T00:47:01.062Z,2.13
2023-03-30T00:49:10.473Z,2.13
2023-03-30T00:51:14.216Z,2.22
2023-03-30T00:53:28.909Z,2.58
2023-03-30T00:55:33.938Z,2.13
2023-03-30T00:57:39.400Z,2.85
2023-03-30T00:59:41.942Z,2.45
2023-03-30T01:01:50.478Z,2.30
2023-03-30T01:03:52.967Z,2.13
2023-03-30T01:05:57.296Z,2.85
2023-03-30T01:07:59.986Z,2.75
2023-03-30T01:10:02.577Z,2.08
2023-03-30T01:12:05.602Z,2.40
2023-03-30T01:14:11.415Z,2.42
2023-03-30T01:16:32.934Z,2.40
2023-03-30T01:18:36.148Z,2.40
2023-03-30T01:20:38.863Z,2.08
2023-03-30T01:22:59.275Z,2.25
2023-03-30T01:25:15.391Z,2.95
2023-03-30T01:27:27.464Z,3.05
2023-03-30T01:29:44.500Z,2.67
2023-03-30T01:32:05.901Z,3.20
2023-03-30T01:34:18.242Z,2.42
2023-03-30T01:36:26.883Z,2.35
2023-03-30T01:38:48.916Z,2.58
2023-03-30T01:41:00.125Z,2.70
2023-03-30T01:43:15.959Z,2.50
2023-03-30T01:45:34.545Z,1.98
2023-03-30T01:47:51.908Z,2.70
2023-03-30T01:50:04.574Z,2.80
2023-03-30T01:52:20.285Z,2.47
2023-03-30T01:54:27.494Z,2.00
2023-03-30T01:56:39.648Z,3.38
2023-03-30T01:58:51.067Z,2.85
2023-03-30T02:00:55.005Z,2.58
2023-03-30T02:03:07.000Z,2.15
2023-03-30T02:05:11.647Z,2.00
2023-03-30T02:07:18.656Z,2.88
2023-03-30T02:09:24.045Z,2.97
2023-03-30T02:11:28.319Z,2.80
2023-03-30T02:13:33.192Z,2.58
2023-03-30T02:15:39.205Z,1.92
2023-03-30T02:17:42.552Z,2.17
2023-03-30T02:19:47.084Z,2.10
2023-03-30T02:21:50.831Z,2.30
2023-03-30T02:23:56.046Z,2.08
2023-03-30T02:25:58.515Z,2.63
2023-03-30T02:28:00.948Z,1.50
2023-03-30T02:30:03.797Z,2.55
2023-03-30T02:32:06.619Z,2.42
2023-03-30T02:34:19.649Z,1.40
2023-03-30T02:36:39.490Z,1.95
2023-03-30T02:38:44.848Z,1.67
2023-03-30T02:40:57.931Z,1.55
2023-03-30T02:43:17.869Z,1.42
2023-03-30T02:45:27.395Z,1.25
2023-03-30T02:47:38.967Z,1.75
2023-03-30T02:49:57.727Z,2.28
2023-03-30T02:52:13.554Z,1.52
2023-03-30T02:54:28.625Z,1.35
2023-03-30T02:56:37.875Z,1.30
2023-03-30T02:58:47.957Z,1.10
2023-03-30T03:00:55.809Z,1.67
2023-03-30T03:03:05.336Z,1.60
2023-03-30T03:05:11.106Z,2.88
2023-03-30T03:07:14.444Z,1.55
2023-03-30T03:09:16.908Z,1.92
2023-03-30T03:11:18.891Z,2.45
2023-03-30T03:13:22.274Z,1.83
2023-03-30T03:15:24.231Z,1.90
2023-03-30T03:17:34.853Z,1.83
2023-03-30T03:21:39.271Z,1.27
2023-03-30T03:23:41.571Z,1.98
2023-03-30T03:25:43.652Z,2.00
2023-03-30T03:27:46.303Z,1.85
2023-03-30T03:29:48.289Z,2.30
2023-03-30T03:31:50.395Z,2.03
2023-03-30T03:33:52.445Z,2.72
2023-03-30T03:35:55.319Z,2.10
2023-03-30T03:37:57.926Z,2.50
2023-03-30T03:39:59.959Z,2.17
2023-03-30T03:42:01.925Z,2.08
2023-03-30T03:44:03.893Z,2.53
2023-03-30T03:46:06.027Z,2.75
2023-03-30T03:48:08.661Z,2.67
2023-03-30T03:50:11.718Z,2.50
2023-03-30T03:52:13.727Z,1.70
2023-03-30T03:54:16.825Z,2.63
2023-03-30T03:56:18.845Z,2.42
2023-03-30T03:58:24.405Z,2.95
2023-03-30T04:00:27.005Z,2.45
2023-03-30T04:02:29.996Z,2.60
2023-03-30T04:04:32.325Z,2.25
2023-03-30T04:06:34.292Z,2.08
2023-03-30T04:08:36.737Z,1.95
2023-03-30T04:10:40.306Z,2.42
2023-03-30T04:12:42.345Z,1.60
2023-03-30T04:14:44.300Z,1.40
2023-03-30T04:16:46.643Z,1.40
2023-03-30T04:18:48.914Z,2.42
2023-03-30T04:20:50.808Z,1.52
2023-03-30T04:22:53.657Z,2.55
2023-03-30T04:24:55.647Z,1.65
2023-03-30T04:26:57.869Z,2.00
2023-03-30T04:29:00.390Z,2.28
2023-03-30T04:31:05.210Z,1.50
2023-03-30T04:33:09.476Z,2.40
2023-03-30T04:35:12.013Z,2.13
2023-03-30T04:37:18.339Z,1.52
2023-03-30T04:39:20.964Z,2.53
2023-03-30T04:41:26.279Z,2.78
2023-03-30T04:43:28.141Z,1.55
2023-03-30T04:45:31.250Z,1.67
2023-03-30T04:47:34.209Z,1.77
2023-03-30T04:49:36.022Z,2.72
2023-03-30T04:51:39.785Z,1.83
2023-03-30T04:53:41.652Z,2.35
2023-03-30T04:55:51.968Z,2.53
2023-03-30T04:57:53.840Z,2.30
2023-03-30T04:59:55.687Z,2.72
2023-03-30T05:01:57.463Z,1.80
2023-03-30T05:03:59.295Z,2.90
2023-03-30T05:06:01.292Z,1.67
2023-03-30T05:08:03.806Z,1.95
2023-03-30T05:10:06.061Z,1.90
2023-03-30T05:12:07.993Z,2.38
2023-03-30T05:14:09.828Z,2.75
2023-03-30T05:16:11.862Z,2.20
2023-03-30T05:18:14.023Z,2.47
2023-03-30T05:20:16.139Z,2.10
2023-03-30T05:22:17.947Z,2.47
2023-03-30T05:24:19.808Z,2.35
2023-03-30T05:26:21.837Z,2.30
2023-03-30T05:28:23.884Z,1.88
2023-03-30T05:30:25.673Z,2.45
2023-03-30T05:32:27.928Z,3.13
2023-03-30T05:34:29.783Z,3.08
2023-03-30T05:36:32.115Z,2.63
2023-03-30T05:38:33.951Z,2.33
2023-03-30T05:40:35.879Z,3.20
2023-03-30T05:42:38.290Z,2.88
2023-03-30T05:44:40.127Z,3.08
2023-03-30T05:46:42.025Z,2.92
2023-03-30T05:48:43.880Z,1.83
2023-03-30T05:50:48.506Z,3.25
2023-03-30T05:52:50.498Z,3.22
2023-03-30T05:54:52.435Z,4.07
2023-03-30T05:56:54.313Z,3.15
2023-03-30T05:58:56.223Z,2.58
2023-03-30T06:00:58.777Z,2.60
2023-03-30T06:03:00.702Z,3.03
2023-03-30T06:05:03.963Z,2.10
2023-03-30T06:07:06.685Z,2.20
2023-03-30T06:09:08.558Z,2.72
2023-03-30T06:11:11.511Z,2.47
2023-03-30T06:13:13.349Z,2.80
2023-03-30T06:15:15.421Z,2.45
2023-03-30T06:17:17.326Z,2.53
2023-03-30T06:19:19.289Z,3.08
2023-03-30T06:21:21.121Z,3.03
2023-03-30T06:23:23.160Z,3.53
2023-03-30T06:25:25.215Z,3.58
2023-03-30T06:27:27.249Z,2.90
2023-03-30T06:29:29.270Z,3.05
2023-03-30T06:31:31.296Z,3.30
2023-03-30T06:33:33.175Z,2.97
2023-03-30T06:35:35.253Z,3.22
2023-03-30T06:37:37.139Z,3.13
2023-03-30T06:39:39.091Z,2.70
2023-03-30T06:41:41.241Z,3.03
2023-03-30T06:43:43.342Z,2.67
2023-03-30T06:45:55.715Z,3.03
2023-03-30T06:47:57.757Z,2.85
2023-03-30T06:49:59.756Z,3.97
2023-03-30T06:52:04.892Z,3.20
2023-03-30T06:54:07.842Z,2.90
2023-03-30T06:56:10.159Z,3.88
2023-03-30T06:58:12.150Z,4.15
2023-03-30T07:00:15.482Z,2.40
2023-03-30T07:02:21.232Z,2.97
2023-03-30T07:04:23.578Z,3.40
2023-03-30T07:06:25.480Z,3.83
2023-03-30T07:08:27.406Z,2.63
2023-03-30T07:10:29.345Z,4.18
2023-03-30T07:12:31.362Z,4.07
2023-03-30T07:14:33.286Z,3.75
2023-03-30T07:16:35.426Z,3.10
2023-03-30T07:18:37.331Z,3.83
2023-03-30T07:20:39.343Z,2.95
2023-03-30T07:22:42.667Z,3.67
2023-03-30T07:24:46.003Z,2.85
2023-03-30T07:26:47.951Z,2.97
2023-03-30T07:28:49.863Z,2.33
2023-03-30T07:30:53.175Z,2.10
2023-03-30T07:32:57.725Z,3.05
2023-03-30T07:35:00.742Z,2.97
2023-03-30T07:37:02.724Z,3.08
2023-03-30T07:39:04.987Z,3.50
2023-03-30T07:41:12.597Z,2.40
2023-03-30T07:43:14.660Z,2.85
2023-03-30T07:45:17.268Z,2.50
2023-03-30T07:47:19.378Z,2.17
2023-03-30T07:49:21.703Z,3.50
2023-03-30T07:51:24.307Z,3.00
2023-03-30T07:53:27.260Z,2.85
2023-03-30T07:55:29.199Z,3.42
2023-03-30T07:57:32.345Z,3.42
2023-03-30T07:59:34.595Z,2.22
2023-03-30T08:01:38.314Z,3.38
2023-03-30T08:03:45.275Z,2.78
2023-03-30T08:05:56.921Z,3.80
2023-03-30T08:07:58.939Z,3.85
2023-03-30T08:10:01.240Z,3.30
2023-03-30T08:12:03.630Z,2.47
2023-03-30T08:14:06.712Z,3.45
2023-03-30T08:16:09.340Z,3.13
2023-03-30T08:18:13.175Z,3.63
2023-03-30T08:20:15.302Z,3.00
2023-03-30T08:22:17.325Z,3.38
2023-03-30T08:24:19.560Z,4.38
2023-03-30T08:26:21.749Z,3.10
2023-03-30T08:28:24.021Z,3.15
2023-03-30T08:30:26.615Z,2.78
2023-03-30T08:32:28.609Z,3.15
2023-03-30T08:34:30.587Z,2.90
2023-03-30T08:36:32.589Z,2.17
2023-03-30T08:38:34.542Z,3.28
2023-03-30T08:40:42.130Z,3.83
2023-03-30T08:43:03.819Z,3.28
2023-03-30T08:45:09.805Z,3.70
2023-03-30T08:47:16.794Z,2.75
2023-03-30T08:49:23.159Z,4.03
2023-03-30T08:51:29.385Z,3.42
2023-03-30T08:53:34.007Z,3.47
2023-03-30T08:55:48.499Z,3.20
2023-03-30T08:58:03.271Z,2.85
2023-03-30T09:00:12.578Z,3.05
2023-03-30T09:02:18.185Z,3.35
2023-03-30T09:04:23.701Z,2.95
2023-03-30T09:06:34.160Z,3.28
2023-03-30T09:08:40.861Z,2.45
2023-03-30T09:10:48.260Z,3.33
2023-03-30T09:12:55.805Z,2.88
2023-03-30T09:15:03.559Z,2.55
2023-03-30T09:17:14.450Z,2.70
2023-03-30T09:19:25.121Z,2.22
2023-03-30T09:21:31.122Z,2.88
2023-03-30T09:23:38.220Z,2.10
2023-03-30T09:26:00.786Z,2.28
2023-03-30T09:28:20.884Z,2.10
2023-03-30T09:30:31.672Z,2.67
2023-03-30T09:34:47.057Z,2.75
2023-03-30T09:37:00.170Z,2.00
2023-03-30T09:39:02.318Z,2.65
2023-03-30T09:41:23.430Z,2.33
2023-03-30T09:43:42.205Z,2.53
2023-03-30T09:45:45.602Z,2.13
2023-03-30T09:47:47.706Z,2.17
2023-03-30T09:49:56.314Z,2.03
2023-03-30T09:52:05.379Z,2.08
2023-03-30T09:54:07.289Z,2.97
2023-03-30T09:56:17.349Z,2.15
2023-03-30T09:58:26.540Z,1.92
2023-03-30T10:00:33.383Z,2.28
2023-03-30T10:02:35.537Z,3.08
2023-03-30T10:05:02.551Z,2.08
2023-03-30T10:07:23.027Z,2.20
2023-03-30T10:09:25.251Z,2.20
2023-03-30T10:11:36.838Z,2.10
2023-03-30T10:13:43.286Z,2.67
2023-03-30T10:15:50.057Z,3.70
2023-03-30T10:17:56.480Z,2.38
2023-03-30T10:20:14.922Z,3.58
2023-03-30T10:22:19.161Z,3.95
2023-03-30T10:24:28.373Z,2.75
2023-03-30T10:26:34.846Z,3.05
2023-03-30T10:28:37.579Z,2.83
2023-03-30T10:30:39.946Z,2.70
2023-03-30T10:32:46.175Z,3.20
2023-03-30T10:34:52.981Z,2.65
2023-03-30T10:36:55.168Z,3.47
2023-03-30T10:39:09.323Z,2.40
2023-03-30T10:41:17.122Z,2.53
2023-03-30T10:43:25.510Z,2.67
2023-03-30T10:45:41.052Z,2.15
2023-03-30T10:48:03.195Z,2.53
2023-03-30T10:50:15.050Z,3.38
2023-03-30T10:52:48.515Z,3.17
2023-03-30T10:55:11.254Z,3.10
2023-03-30T10:57:18.895Z,2.42
2023-03-30T10:59:32.385Z,2.35
2023-03-30T11:01:53.855Z,4.18
2023-03-30T11:04:20.377Z,2.80
2023-03-30T11:06:30.949Z,2.38
2023-03-30T11:08:37.463Z,4.10
2023-03-30T11:10:44.251Z,3.38
2023-03-30T11:12:54.625Z,2.67
2023-03-30T11:15:08.626Z,2.47
2023-03-30T11:17:20.432Z,3.60
2023-03-30T11:19:26.430Z,2.63
2023-03-30T11:21:44.596Z,2.17
2023-03-30T11:23:56.525Z,2.63
2023-03-30T11:26:01.404Z,2.35
2023-03-30T11:28:15.758Z,2.60
2023-03-30T11:30:26.921Z,2.10
2023-03-30T11:32:33.836Z,2.80
2023-03-30T11:34:50.505Z,2.50
2023-03-30T11:37:09.099Z,2.80
2023-03-30T11:39:31.059Z,2.22
2023-03-30T11:41:42.950Z,1.88
2023-03-30T11:43:45.036Z,2.50
2023-03-30T11:45:55.507Z,2.42
2023-03-30T11:48:14.593Z,1.88
2023-03-30T11:50:30.034Z,1.67
2023-03-30T11:52:48.400Z,2.30
2023-03-30T11:55:08.568Z,2.83
2023-03-30T11:57:30.685Z,2.85
2023-03-30T11:59:39.812Z,2.67
2023-03-30T12:01:59.687Z,1.73
2023-03-30T12:04:10.938Z,1.80
2023-03-30T12:06:26.114Z,2.13
2023-03-30T12:08:47.463Z,2.58
2023-03-30T12:11:01.526Z,3.13
2023-03-30T12:13:03.616Z,2.22
2023-03-30T12:15:23.466Z,2.08
2023-03-30T12:17:37.063Z,2.53
2023-03-30T12:19:56.012Z,1.80
2023-03-30T12:22:05.884Z,1.55
2023-03-30T12:24:19.025Z,2.03
2023-03-30T12:26:31.094Z,2.47
2023-03-30T12:30:53.957Z,2.03
2023-03-30T12:32:59.782Z,2.22
2023-03-30T12:35:01.795Z,2.05
2023-03-30T12:37:13.423Z,2.35
2023-03-30T12:39:26.121Z,2.08
2023-03-30T12:41:38.537Z,1.85
2023-03-30T12:43:48.142Z,2.60
2023-03-30T12:46:02.948Z,1.55
2023-03-30T12:48:27.943Z,1.80
2023-03-30T12:50:49.718Z,2.40
2023-03-30T12:52:59.861Z,1.50
2023-03-30T12:55:03.657Z,1.98
2023-03-30T12:57:14.389Z,2.50
2023-03-30T13:01:51.873Z,1.92
2023-03-30T13:03:59.455Z,2.60
2023-03-30T13:06:03.860Z,2.45
2023-03-30T13:08:19.308Z,2.45
2023-03-30T13:10:32.715Z,1.67
2023-03-30T13:12:44.049Z,1.80
2023-03-30T13:14:46.778Z,2.33
2023-03-30T13:17:11.304Z,2.03
2023-03-30T13:19:30.647Z,2.47
2023-03-30T13:21:48.029Z,2.30
2023-03-30T13:24:02.098Z,2.75
2023-03-30T13:26:34.741Z,1.95
2023-03-30T13:28:56.844Z,2.80
2023-03-30T13:31:15.647Z,2.53
2023-03-30T13:33:22.506Z,2.53
2023-03-30T13:35:38.576Z,2.15
2023-03-30T13:37:49.126Z,2.35
2023-03-30T13:40:08.973Z,2.00
2023-03-30T13:42:18.461Z,2.30
2023-03-30T13:44:38.389Z,1.50
2023-03-30T13:46:49.041Z,1.80
2023-03-30T13:49:10.841Z,2.40
2023-03-30T13:51:16.982Z,2.00
2023-03-30T13:53:19.723Z,1.85
2023-03-30T13:55:27.953Z,1.25
2023-03-30T13:57:36.811Z,2.08
2023-03-30T13:59:45.736Z,2.08
2023-03-30T14:01:53.759Z,2.35
2023-03-30T14:03:57.725Z,1.85
2023-03-30T14:06:04.251Z,1.80
2023-03-30T14:08:10.412Z,1.75
2023-03-30T14:10:16.085Z,1.80
2023-03-30T14:12:18.333Z,1.67
2023-03-30T14:14:34.813Z,1.70
2023-03-30T14:16:40.842Z,2.63
2023-03-30T14:18:43.233Z,2.15
2023-03-30T14:20:59.614Z,1.83
2023-03-30T14:23:04.363Z,2.10
2023-03-30T14:25:22.226Z,2.20
2023-03-30T14:27:24.460Z,2.22
2023-03-30T14:29:31.672Z,1.95
2023-03-30T14:31:47.292Z,1.98
2023-03-30T14:33:57.946Z,1.90
2023-03-30T14:36:02.224Z,1.45
2023-03-30T14:40:16.967Z,2.50
2023-03-30T14:42:21.707Z,2.20
2023-03-30T14:44:26.926Z,2.42
2023-03-30T14:46:42.800Z,1.23
2023-03-30T14:48:49.303Z,1.98
2023-03-30T14:50:52.927Z,2.05
2023-03-30T14:52:55.897Z,1.92
2023-03-30T14:55:07.476Z,2.22
2023-03-30T14:57:17.695Z,2.20
2023-03-30T14:59:21.050Z,2.42
2023-03-30T15:01:31.452Z,1.83
2023-03-30T15:03:37.717Z,2.47
2023-03-30T15:05:42.994Z,2.35
2023-03-30T15:07:56.462Z,2.20
2023-03-30T15:10:00.680Z,2.85
2023-03-30T15:12:04.197Z,2.30
2023-03-30T15:14:14.340Z,1.85
2023-03-30T15:16:22.162Z,1.98
2023-03-30T15:18:27.941Z,1.65
2023-03-30T15:20:31.930Z,2.92
2023-03-30T15:22:44.564Z,2.40
2023-03-30T15:24:47.059Z,2.42
2023-03-30T15:26:50.561Z,1.95
2023-03-30T15:28:57.052Z,1.75
2023-03-30T15:30:59.552Z,1.48
2023-03-30T15:33:02.823Z,2.78
2023-03-30T15:35:08.680Z,2.08
2023-03-30T15:37:23.019Z,2.25
2023-03-30T15:39:34.337Z,1.70
2023-03-30T15:41:48.110Z,3.70
2023-03-30T15:43:54.653Z,2.53
2023-03-30T15:46:02.682Z,3.20
2023-03-30T15:48:06.192Z,2.58
2023-03-30T15:50:14.670Z,2.00
2023-03-30T15:52:22.939Z,2.45
2023-03-30T15:54:36.377Z,2.83
2023-03-30T15:56:41.577Z,2.20
2023-03-30T15:58:44.043Z,2.38
2023-03-30T16:00:46.788Z,1.65
2023-03-30T16:02:57.931Z,1.80
2023-03-30T16:05:01.840Z,2.70
2023-03-30T16:07:15.440Z,2.08
2023-03-30T16:09:17.920Z,3.60
2023-03-30T16:11:21.546Z,2.72
2023-03-30T16:13:23.961Z,3.22
2023-03-30T16:15:30.111Z,2.97
2023-03-30T16:17:34.288Z,2.70
2023-03-30T16:19:38.501Z,2.38
2023-03-30T16:21:42.534Z,2.63
2023-03-30T16:23:46.131Z,2.47
2023-03-30T16:25:48.493Z,2.78
2023-03-30T16:27:50.439Z,3.22
2023-03-30T16:29:52.738Z,2.83
2023-03-30T16:31:55.621Z,2.20
2023-03-30T16:33:57.866Z,2.22
2023-03-30T16:35:59.971Z,3.00
2023-03-30T16:38:02.052Z,3.00
2023-03-30T16:40:13.169Z,2.70
2023-03-30T16:42:18.320Z,3.33
2023-03-30T16:44:22.550Z,2.78
2023-03-30T16:46:24.739Z,1.95
2023-03-30T16:48:29.105Z,2.30
2023-03-30T16:50:44.247Z,2.10
2023-03-30T16:52:46.343Z,2.75
2023-03-30T16:54:48.488Z,2.40
2023-03-30T16:56:50.624Z,2.72
2023-03-30T16:58:52.853Z,3.25
2023-03-30T17:01:03.435Z,3.30
2023-03-30T17:03:05.919Z,3.42
2023-03-30T17:05:08.428Z,2.55
2023-03-30T17:07:10.805Z,3.28
2023-03-30T17:09:16.967Z,2.83
2023-03-30T17:11:19.039Z,2.95
2023-03-30T17:13:21.386Z,3.15
2023-03-30T17:15:24.950Z,3.00
2023-03-30T17:17:27.586Z,3.22
2023-03-30T17:19:31.110Z,3.63
2023-03-30T17:21:33.205Z,3.13
2023-03-30T17:23:35.693Z,3.20
2023-03-30T17:25:40.099Z,2.42
2023-03-30T17:27:42.468Z,2.60
2023-03-30T17:29:44.484Z,2.92
2023-03-30T17:31:46.520Z,4.45
2023-03-30T17:33:49.488Z,3.40
2023-03-30T17:35:55.145Z,3.05
2023-03-30T17:37:57.235Z,3.55
2023-03-30T17:40:00.009Z,2.55
2023-03-30T17:42:02.182Z,3.22
2023-03-30T17:44:06.778Z,3.25
2023-03-30T17:46:13.537Z,3.08
2023-03-30T17:48:18.537Z,3.08
2023-03-30T17:50:24.099Z,3.65
2023-03-30T17:52:30.457Z,3.22
2023-03-30T17:54:33.398Z,3.17
2023-03-30T17:56:35.455Z,2.95
2023-03-30T17:58:37.474Z,3.97
2023-03-30T18:00:39.564Z,3.08
2023-03-30T18:02:41.542Z,3.17
2023-03-30T18:04:43.501Z,3.00
2023-03-30T18:06:45.702Z,3.40
2023-03-30T18:08:48.890Z,3.50
2023-03-30T18:10:52.943Z,3.95
2023-03-30T18:12:55.448Z,3.90
2023-03-30T18:14:57.603Z,4.07
2023-03-30T18:17:06.357Z,2.60
2023-03-30T18:19:11.900Z,3.10
2023-03-30T18:21:13.921Z,3.13
2023-03-30T18:23:15.983Z,2.78
2023-03-30T18:25:31.546Z,4.93
2023-03-30T18:27:35.135Z,3.90
2023-03-30T18:29:37.989Z,3.22
2023-03-30T18:31:39.918Z,3.92
2023-03-30T18:33:42.008Z,4.22
2023-03-30T18:35:45.943Z,3.20
2023-03-30T18:37:49.228Z,3.33
2023-03-30T18:39:51.157Z,2.83
2023-03-30T18:41:53.140Z,4.35
2023-03-30T18:43:55.078Z,4.25
2023-03-30T18:46:02.697Z,3.08
2023-03-30T18:48:07.342Z,3.88
2023-03-30T18:50:14.442Z,3.38
2023-03-30T18:52:17.397Z,3.50
2023-03-30T18:54:19.967Z,2.65
2023-03-30T18:56:22.048Z,3.88
2023-03-30T18:58:26.721Z,3.97
2023-03-30T19:00:31.700Z,3.60
2023-03-30T19:02:34.710Z,3.47
2023-03-30T19:04:38.058Z,3.30
2023-03-30T19:06:40.288Z,3.38
2023-03-30T19:08:43.725Z,2.53
2023-03-30T19:10:47.389Z,3.47
2023-03-30T19:12:53.846Z,3.22
2023-03-30T19:14:56.706Z,4.10
2023-03-30T19:16:59.942Z,3.63
2023-03-30T19:19:02.262Z,7.38
2023-03-30T19:21:05.215Z,8.80
2023-03-30T19:23:13.602Z,5.05
2023-03-30T19:25:18.019Z,3.50
2023-03-30T19:27:21.264Z,6.65
2023-03-30T19:29:24.430Z,4.10
2023-03-30T19:31:27.828Z,3.08
2023-03-30T19:33:31.020Z,3.55
2023-03-30T19:35:34.633Z,4.00
2023-03-30T19:37:39.366Z,3.30
2023-03-30T19:39:42.982Z,3.38
2023-03-30T19:41:45.741Z,3.70
2023-03-30T19:43:50.584Z,4.00
2023-03-30T19:45:53.438Z,4.10
2023-03-30T19:47:56.538Z,4.03
2023-03-30T19:49:59.503Z,3.38
2023-03-30T19:52:01.798Z,3.92
2023-03-30T19:54:04.016Z,3.58
2023-03-30T19:56:11.228Z,3.55
2023-03-30T19:58:13.867Z,3.35
2023-03-30T20:00:17.553Z,3.83
2023-03-30T20:02:20.028Z,4.18
2023-03-30T20:04:22.876Z,3.40
2023-03-30T20:06:25.482Z,2.95
2023-03-30T20:08:28.016Z,4.03
2023-03-30T20:10:30.622Z,3.50
2023-03-30T20:12:32.781Z,3.08
2023-03-30T20:14:35.570Z,3.58
2023-03-30T20:16:37.629Z,3.60
2023-03-30T20:18:40.582Z,3.08
2023-03-30T20:20:42.586Z,3.53
2023-03-30T20:22:45.105Z,3.45
2023-03-30T20:24:47.187Z,4.15
2023-03-30T20:26:49.172Z,4.32
2023-03-30T20:28:51.257Z,4.05
2023-03-30T20:30:56.314Z,4.38
2023-03-30T20:33:07.525Z,3.15
2023-03-30T20:35:11.460Z,3.15
2023-03-30T20:37:13.542Z,3.05
2023-03-30T20:39:16.354Z,3.42
2023-03-30T20:41:21.957Z,4.70
2023-03-30T20:43:40.542Z,3.60
2023-03-30T20:45:49.241Z,4.28
2023-03-30T20:47:54.385Z,2.58
2023-03-30T20:49:57.297Z,3.90
2023-03-30T20:52:01.461Z,3.70
2023-03-30T20:54:05.224Z,3.28
2023-03-30T20:56:10.802Z,2.75
2023-03-30T20:58:13.621Z,3.38
2023-03-30T21:00:17.157Z,4.50
2023-03-30T21:02:20.360Z,3.15
2023-03-30T21:04:23.284Z,3.42
2023-03-30T21:06:29.971Z,3.25
2023-03-30T21:08:33.999Z,4.88
2023-03-30T21:10:37.060Z,3.85
2023-03-30T21:12:40.074Z,3.38
2023-03-30T21:14:42.899Z,3.50
2023-03-30T21:16:45.807Z,3.20
2023-03-30T21:18:51.199Z,3.60
2023-03-30T21:20:54.052Z,3.58
2023-03-30T21:22:57.150Z,4.28
2023-03-30T21:24:59.984Z,3.85
2023-03-30T21:27:04.234Z,4.43
2023-03-30T21:29:07.445Z,4.13
2023-03-30T21:31:12.484Z,2.85
2023-03-30T21:33:14.652Z,3.53
2023-03-30T21:35:16.698Z,3.40
2023-03-30T21:37:19.102Z,3.22
2023-03-30T21:39:21.161Z,3.33
2023-03-30T21:41:24.569Z,3.20
2023-03-30T21:43:28.332Z,2.78
2023-03-30T21:45:30.298Z,2.35
2023-03-30T21:47:32.278Z,2.15
2023-03-30T21:49:34.420Z,2.00
2023-03-30T21:51:36.790Z,2.70
2023-03-30T21:53:39.079Z,2.53
2023-03-30T21:55:40.986Z,2.47
2023-03-30T21:57:42.867Z,1.38
2023-03-30T21:59:44.823Z,1.85
2023-03-30T22:01:46.790Z,1.27
2023-03-30T22:03:48.947Z,2.00
2023-03-30T22:05:51.247Z,1.10
2023-03-30T22:07:53.378Z,1.67
2023-03-30T22:09:58.237Z,1.42
2023-03-30T22:12:00.422Z,1.70
2023-03-30T22:14:02.370Z,1.08
2023-03-30T22:16:11.017Z,1.10
2023-03-30T22:18:12.893Z,0.93
2023-03-30T22:20:15.148Z,1.63
2023-03-30T22:22:17.046Z,2.08
2023-03-30T22:24:20.439Z,0.93
2023-03-30T22:26:22.575Z,1.45
2023-03-30T22:28:26.064Z,0.80
2023-03-30T22:30:27.950Z,0.90
2023-03-30T22:32:32.876Z,1.80
2023-03-30T22:34:35.065Z,1.20
2023-03-30T22:36:36.936Z,1.05
2023-03-30T22:38:38.811Z,0.73
2023-03-30T22:40:43.540Z,0.80
2023-03-30T22:42:45.768Z,1.20
2023-03-30T22:44:47.766Z,1.02
2023-03-30T22:46:49.676Z,1.73
2023-03-30T22:48:55.993Z,1.48
2023-03-30T22:51:02.356Z,1.27
2023-03-30T22:53:06.717Z,1.10
2023-03-30T22:55:09.202Z,1.48
2023-03-30T22:57:11.346Z,1.25
2023-03-30T22:59:13.443Z,1.67
2023-03-30T23:01:16.019Z,1.10
2023-03-30T23:03:18.278Z,1.45
2023-03-30T23:05:22.090Z,1.17
2023-03-30T23:07:24.320Z,1.33
2023-03-30T23:09:28.799Z,1.15
2023-03-30T23:11:32.406Z,0.88
2023-03-30T23:13:37.628Z,1.92
2023-03-30T23:15:40.112Z,1.42
2023-03-30T23:17:43.187Z,1.60
2023-03-30T23:19:45.820Z,1.27
2023-03-30T23:21:48.012Z,2.03
2023-03-30T23:23:49.902Z,0.85
2023-03-30T23:25:52.268Z,1.27
2023-03-30T23:27:54.128Z,1.10
2023-03-30T23:29:55.948Z,1.60
2023-03-30T23:31:58.564Z,0.85
2023-03-30T23:34:00.627Z,2.92
2023-03-30T23:36:02.955Z,1.27
2023-03-30T23:38:05.747Z,1.83
2023-03-30T23:40:09.875Z,1.55
2023-03-30T23:42:11.803Z,2.03
2023-03-30T23:44:13.686Z,1.27
2023-03-30T23:46:16.359Z,1.17
2023-03-30T23:48:18.893Z,1.02
2023-03-30T23:50:20.819Z,1.23
2023-03-30T23:52:22.673Z,1.30
2023-03-30T23:54:24.872Z,2.45
2023-03-30T23:56:32.246Z,1.10
2023-03-30T23:58:34.245Z,2.50
